Gilze-Rijen, Netherlands
Current Conditions -  °F | °C
As of 7:07 AM on Thursday 23 Oct 2014 (Local Time) from EHGR Reporting Station
Overcast Overcast  
Wind Chill: 50°   Ceiling: 2400
Heat Index: 50°   Visibility: 6mi
Dew Point: 46°   Wind: 5mph
Humidity: 87%   Direction: 220°SW
Pressure: 30.15"   Gusts: NA
Location:  51.59°N, 4.92°E
Report Text: EHGR 230507Z AUTO 22004KT 9999 BKN024 OVC027 10/08 Q1021 WHT
Loading
Personal Weather Stations






























Interactive Weather Map
Tropical Storm Tracking
New forecast layout! Learn more

10-Day Weather Forecast

Advertisements
Track Severe Weather on mobile